Portada
METAR-TAF:

METAR-TAF

Aeroports :

Kangiqsualujjuaq, Quebec, Canadà

latitud: 58-43N, longitud: 065-59W, altitud: 60 m

Observació

L'informe es va fer fa 20 minuts, a les 14:00 UTC
Vent 7 kt del Est/Sud-Est, variant entre Est i Sud
Temperatura 9°C
Humitat 66%
Pressió 1025 hPa
Visibilitat: 24.1 km
Escasses núvols a una alçada de 4900 ft
Escasses núvols a una alçada de 12000 ft
Escasses núvols a una alçada de 23000 ft

METAR: CYLU 171400Z 12007KT 090V180 15SM FEW049 FEW120 FEW230 09/03 A3027 RMK SC1AC1CI2 SC TR AC TR SLP257

Hora: 10:20 (14:20 UTC)


TAF: manca

Observacions i pronòstics meteorològics de més de 4000 aeroports (METAR i TAF).

Les estacions disponibles són els punts grocs i vermells al mapa.

Posi el ratolí al punt desitjat per veure el nom de l'estació.

Feu clic per veure les observacions i els pronòstics meteorològics.

Per canviar el mapa: feu clic els botons verds amb una creu de color negre per apropar; al botó verd amb un guió per allunyar la imatge; o en les fletxes verdes per a mapes adjacents.


METAR-TAF: